Piui, Brazil
Current Conditions -  °F | °C
As of 7:00 PM on Saturday 20 Dec 2014 (Local Time) from SBPC Reporting Station
Scattered Clouds Scattered Clouds  
Wind Chill: 75°   Ceiling: Unl
Heat Index: 75°   Visibility: 6mi
Dew Point: 68°   Wind: 7mph
Humidity: 78%   Direction: 50°NE
Pressure: 30"   Gusts: NA
Location:  20.47°S, 45.96°W
Report Text: SBPC 202100Z 05006KT 9999 FEW020 SCT100 24/20 Q1016
Loading
Personal Weather Stations






























Interactive Weather Map New forecast layout! Learn more

10-Day Weather Forecast

Advertisements
Track Severe Weather on mobile